Time;durP1;ratioP1;P1;durP2;ratioP2;P2;SDS_P1;SDS_P2;PMS_P1;PMS_P2;Temp;Humidity;BMP_temperature;BMP_pressure;BME280_temperature;BME280_humidity;BME280_pressure;Samples;Min_cycle;Max_cycle;Signal;HPM_P1;HPM_P2
2023/04/18 00:10:19;;;;;;;8.50;7.65;;;;;;;5.02;100.00;93180.34;2568296;23;20599;-81
2023/04/18 00:11:20;;;;;;;8.27;7.47;;;;;;;5.02;100.00;93190.19;2547742;23;20009;-81
2023/04/18 00:12:21;;;;;;;9.15;8.25;;;;;;;4.96;100.00;93189.81;2543117;23;20088;-83
2023/04/18 00:13:23;;;;;;;9.60;8.70;;;;;;;5.01;100.00;93175.41;2554905;23;20027;-82
2023/04/18 00:14:24;;;;;;;10.43;8.45;;;;;;;5.02;100.00;93176.94;2542539;23;20425;-81
2023/04/18 00:15:25;;;;;;;9.52;8.52;;;;;;;5.03;100.00;93181.84;2554720;23;20001;-85
2023/04/18 00:16:27;;;;;;;10.57;9.48;;;;;;;5.04;100.00;93179.94;2555523;23;20008;-85
2023/04/18 00:17:29;;;;;;;10.93;9.82;;;;;;;4.93;100.00;93173.91;2543499;23;20361;-83
2023/04/18 00:18:30;;;;;;;10.57;9.18;;;;;;;4.86;100.00;93176.53;2542312;23;20064;-81
2023/04/18 00:19:33;;;;;;;10.98;9.70;;;;;;;4.83;100.00;93183.34;2542576;23;20036;-82
2023/04/18 00:20:37;;;;;;;10.55;9.48;;;;;;;4.90;100.00;93175.41;2531355;23;20009;-83
2023/04/18 00:21:43;;;;;;;10.27;9.27;;;;;;;5.02;100.00;93175.03;2543095;23;20012;-81
2023/04/18 00:22:45;;;;;;;9.98;8.98;;;;;;;4.87;100.00;93178.78;2532755;23;20037;-82
2023/04/18 00:23:46;;;;;;;10.27;9.27;;;;;;;4.88;100.00;93172.38;2531398;23;20049;-81
2023/04/18 00:24:51;;;;;;;10.68;9.57;;;;;;;4.84;100.00;93176.16;2543023;23;20012;-82
2023/04/18 00:25:53;;;;;;;11.38;9.80;;;;;;;4.96;100.00;93175.78;2555744;23;20043;-83
2023/04/18 00:26:56;;;;;;;12.02;9.82;;;;;;;4.89;100.00;93168.59;2543290;23;20092;-81
2023/04/18 00:27:57;;;;;;;11.18;9.98;;;;;;;4.84;100.00;93171.63;2543170;23;20010;-83
2023/04/18 00:28:58;;;;;;;11.00;9.80;;;;;;;4.78;100.00;93170.47;2555707;23;20009;-84
2023/04/18 00:29:59;;;;;;;11.18;10.00;;;;;;;4.85;100.00;93170.47;2530696;23;20006;-82
2023/04/18 00:31:00;;;;;;;12.60;9.25;;;;;;;4.83;100.00;93171.97;2530650;23;20017;-82
2023/04/18 00:32:01;;;;;;;10.40;9.27;;;;;;;4.86;100.00;93168.59;2543089;23;20011;-84
2023/04/18 00:33:03;;;;;;;10.80;9.07;;;;;;;4.75;100.00;93171.25;2555523;23;20001;-82
2023/04/18 00:34:04;;;;;;;10.27;9.25;;;;;;;4.82;100.00;93167.84;2543431;23;20001;-83
2023/04/18 00:35:05;;;;;;;11.32;9.70;;;;;;;4.74;100.00;93167.84;2530714;23;20072;-82
2023/04/18 00:36:06;;;;;;;13.32;9.88;;;;;;;4.86;100.00;93165.94;2543476;23;20296;-83
2023/04/18 00:37:09;;;;;;;11.00;9.82;;;;;;;4.93;100.00;93166.72;2543221;23;20088;-82
2023/04/18 00:38:10;;;;;;;12.60;9.95;;;;;;;4.87;100.00;93164.81;2543867;23;20013;-83
2023/04/18 00:39:11;;;;;;;11.25;10.15;;;;;;;4.89;100.00;93158.00;2555085;23;20432;-82
2023/04/18 00:40:12;;;;;;;10.50;9.50;;;;;;;4.82;100.00;93168.59;2542500;23;20016;-81
2023/04/18 00:41:14;;;;;;;10.73;9.63;;;;;;;5.01;100.00;93165.59;2555041;23;20448;-82
2023/04/18 00:42:15;;;;;;;12.35;10.05;;;;;;;4.96;100.00;93159.88;2555652;23;20008;-83
2023/04/18 00:43:16;;;;;;;11.32;9.75;;;;;;;4.99;100.00;93159.13;2555535;23;20039;-83
2023/04/18 00:44:17;;;;;;;10.93;9.82;;;;;;;4.99;100.00;93159.13;2530572;23;20037;-82
2023/04/18 00:45:18;;;;;;;11.48;9.02;;;;;;;4.92;100.00;93161.81;2530556;23;20010;-83
2023/04/18 00:46:19;;;;;;;10.95;9.85;;;;;;;4.98;100.00;93163.69;2531246;23;20461;-83
2023/04/18 00:47:20;;;;;;;11.13;10.05;;;;;;;4.90;100.00;93162.16;2531201;23;20002;-83
2023/04/18 00:48:22;;;;;;;14.35;10.35;;;;;;;4.85;100.00;93157.25;2568248;23;20005;-84
2023/04/18 00:49:23;;;;;;;11.57;10.38;;;;;;;4.85;100.00;93156.50;2568024;23;20080;-84
2023/04/18 00:50:25;;;;;;;10.70;9.60;;;;;;;4.92;100.00;93148.56;2542921;23;20002;-84
2023/04/18 00:51:26;;;;;;;11.85;10.50;;;;;;;4.80;100.00;93145.13;2543253;23;20029;-83
2023/04/18 00:52:28;;;;;;;12.52;10.52;;;;;;;4.83;100.00;93153.44;2567520;23;20487;-81
2023/04/18 00:53:29;;;;;;;11.10;9.85;;;;;;;4.79;100.00;93148.16;2555574;23;20005;-82
2023/04/18 00:54:30;;;;;;;11.10;9.90;;;;;;;4.70;100.00;93148.53;2531362;23;20017;-83
2023/04/18 00:55:33;;;;;;;11.88;10.68;;;;;;;4.69;100.00;93148.91;2530863;23;20005;-84
2023/04/18 00:56:35;;;;;;;11.07;9.90;;;;;;;4.65;100.00;93145.50;2531195;23;20006;-81
2023/04/18 00:57:36;;;;;;;12.25;10.95;;;;;;;4.62;100.00;93146.25;2542732;23;20016;-83
2023/04/18 00:58:39;;;;;;;12.45;10.63;;;;;;;4.58;100.00;93143.59;2543498;23;20006;-82
2023/04/18 00:59:41;;;;;;;12.00;10.70;;;;;;;4.69;100.00;93152.31;2531282;23;20089;-81
2023/04/18 01:00:43;;;;;;;12.00;10.63;;;;;;;4.69;100.00;93151.56;2530881;23;20009;-81
2023/04/18 01:01:44;;;;;;;13.05;11.20;;;;;;;4.67;100.00;93144.00;2543099;23;20076;-82
2023/04/18 01:02:45;;;;;;;13.82;11.57;;;;;;;4.63;100.00;93147.78;2542314;23;20028;-81
2023/04/18 01:03:47;;;;;;;12.98;11.57;;;;;;;4.61;100.00;93145.50;2531426;23;20456;-83
2023/04/18 01:04:48;;;;;;;12.05;10.57;;;;;;;4.57;100.00;93144.00;2543506;23;20025;-82
2023/04/18 01:05:49;;;;;;;13.50;10.77;;;;;;;4.59;100.00;93139.06;2555269;23;20009;-82
2023/04/18 01:06:50;;;;;;;13.20;11.00;;;;;;;4.71;100.00;93136.06;2543188;23;20355;-84
2023/04/18 01:07:52;;;;;;;12.82;10.40;;;;;;;4.64;100.00;93131.50;2543296;23;20010;-84
2023/04/18 01:08:56;;;;;;;12.00;10.80;;;;;;;4.60;100.00;93135.28;2530343;23;20109;-85
2023/04/18 01:09:59;;;;;;;11.85;10.65;;;;;;;4.68;100.00;93131.50;2543293;23;20048;-83
2023/04/18 01:11:02;;;;;;;13.27;10.63;;;;;;;4.74;100.00;93133.41;2555376;23;20166;-82
2023/04/18 01:12:05;;;;;;;14.13;11.10;;;;;;;4.85;100.00;93130.00;2542918;23;20009;-81
2023/04/18 01:13:17;;;;;;;12.15;10.48;;;;;;;4.85;100.00;93125.47;2531517;23;20105;-83
2023/04/18 01:14:19;;;;;;;11.70;10.15;;;;;;;4.86;100.00;93129.63;2534966;23;20499;-82
2023/04/18 01:15:23;;;;;;;13.65;10.40;;;;;;;4.82;100.00;93128.88;2530569;23;20010;-81
2023/04/18 01:16:24;;;;;;;12.10;10.55;;;;;;;4.68;100.00;93129.63;2543114;23;20039;-82
2023/04/18 01:17:27;;;;;;;11.50;10.30;;;;;;;4.71;100.00;93123.56;2542933;23;20453;-82
2023/04/18 01:18:30;;;;;;;12.75;11.45;;;;;;;4.74;100.00;93130.00;2543492;23;20005;-84
2023/04/18 01:19:32;;;;;;;13.73;10.95;;;;;;;4.73;100.00;93125.84;2543676;23;20005;-83
2023/04/18 01:20:37;;;;;;;14.60;10.98;;;;;;;4.69;100.00;93133.03;2543338;23;20075;-84
2023/04/18 01:21:42;;;;;;;13.23;11.40;;;;;;;4.63;100.00;93122.06;2532203;23;20390;-83
2023/04/18 01:22:43;;;;;;;13.18;11.52;;;;;;;4.59;100.00;93131.13;2532274;23;20036;-82
2023/04/18 01:23:46;;;;;;;14.40;11.70;;;;;;;4.59;100.00;93125.84;2531196;23;20006;-82
2023/04/18 01:24:47;;;;;;;13.13;11.73;;;;;;;4.61;100.00;93126.19;2531620;23;20109;-81
2023/04/18 01:25:48;;;;;;;12.95;11.55;;;;;;;4.57;100.00;93122.81;2531112;23;20006;-82
2023/04/18 01:26:49;;;;;;;13.38;11.75;;;;;;;4.65;100.00;93122.41;2530538;23;20061;-83
2023/04/18 01:27:52;;;;;;;12.45;11.15;;;;;;;4.65;100.00;93125.06;2542492;23;20005;-82
2023/04/18 01:28:54;;;;;;;14.30;11.57;;;;;;;4.64;100.00;93118.28;2543796;23;20011;-82
2023/04/18 01:29:55;;;;;;;13.38;11.25;;;;;;;4.72;100.00;93125.09;2543446;23;20005;-83
2023/04/18 01:30:56;;;;;;;13.48;11.45;;;;;;;4.61;100.00;93123.56;2554707;23;20016;-81
2023/04/18 01:31:57;;;;;;;13.88;12.35;;;;;;;4.61;100.00;93115.63;2541971;23;20040;-83
2023/04/18 01:33:00;;;;;;;14.30;12.25;;;;;;;4.58;100.00;93117.13;2542576;23;20064;-83
2023/04/18 01:34:01;;;;;;;14.70;12.10;;;;;;;4.54;100.00;93114.47;2555924;23;20487;-81
2023/04/18 01:35:02;;;;;;;15.20;12.40;;;;;;;4.57;100.00;93112.22;2543191;23;20006;-81
2023/04/18 01:36:04;;;;;;;14.05;11.90;;;;;;;4.57;100.00;93128.13;2543057;23;20250;-80
2023/04/18 01:37:05;;;;;;;14.38;12.48;;;;;;;4.54;100.00;93116.38;2554998;23;20364;-82
2023/04/18 01:38:06;;;;;;;15.00;12.98;;;;;;;4.63;100.00;93116.00;2567698;23;20031;-81
2023/04/18 01:39:07;;;;;;;14.40;11.80;;;;;;;4.58;100.00;93111.84;2567299;23;20363;-81
2023/04/18 01:40:10;;;;;;;13.57;12.13;;;;;;;4.71;100.00;93115.63;2530463;23;20040;-81
2023/04/18 01:41:11;;;;;;;15.00;12.95;;;;;;;4.71;100.00;93117.53;2543754;23;20036;-81
2023/04/18 01:42:12;;;;;;;14.32;11.95;;;;;;;4.69;100.00;93109.94;2543151;23;20001;-82
2023/04/18 01:43:13;;;;;;;13.57;11.82;;;;;;;4.63;100.00;93111.47;2530752;23;20037;-83
2023/04/18 01:44:14;;;;;;;14.32;12.48;;;;;;;4.61;100.00;93112.97;2530426;23;20045;-82
2023/04/18 01:45:16;;;;;;;18.60;12.32;;;;;;;4.65;100.00;93108.44;2542504;23;20015;-82
2023/04/18 01:46:17;;;;;;;16.45;12.70;;;;;;;4.50;100.00;93113.72;2543375;23;20032;-81
2023/04/18 01:47:19;;;;;;;15.35;12.60;;;;;;;4.80;100.00;93104.66;2542788;23;20520;-83
2023/04/18 01:48:20;;;;;;;15.65;12.88;;;;;;;4.61;100.00;93107.66;2531181;23;20033;-82
2023/04/18 01:49:21;;;;;;;17.50;13.18;;;;;;;4.73;100.00;93104.66;2542961;23;20032;-83
2023/04/18 01:50:24;;;;;;;16.20;13.63;;;;;;;4.70;100.00;93110.72;2530240;23;20006;-81
2023/04/18 01:51:27;;;;;;;15.35;12.95;;;;;;;4.69;100.00;93107.28;2531675;23;20012;-82
2023/04/18 01:52:29;;;;;;;16.00;13.45;;;;;;;4.65;100.00;93105.78;2531413;23;20006;-83
2023/04/18 01:53:31;;;;;;;15.68;14.07;;;;;;;4.64;100.00;93107.69;2530909;23;20006;-83
2023/04/18 01:54:32;;;;;;;15.77;12.98;;;;;;;4.78;100.00;93104.28;2543723;23;20369;-83
2023/04/18 01:55:33;;;;;;;16.67;13.35;;;;;;;4.69;100.00;93109.19;2542776;23;20005;-82
2023/04/18 01:56:35;;;;;;;17.67;13.88;;;;;;;4.63;100.00;93106.16;2530613;23;20005;-82
2023/04/18 01:57:36;;;;;;;15.95;13.43;;;;;;;4.59;100.00;93109.94;2529990;23;20021;-83
2023/04/18 01:58:38;;;;;;;19.27;13.63;;;;;;;4.58;100.00;93106.56;2530570;23;20425;-83
2023/04/18 01:59:39;;;;;;;16.05;13.68;;;;;;;4.60;100.00;93103.50;2542924;23;20516;-84
2023/04/18 02:00:40;;;;;;;17.55;13.30;;;;;;;4.62;100.00;93103.91;2542814;23;20032;-82
2023/04/18 02:01:41;;;;;;;17.30;14.07;;;;;;;4.64;100.00;93105.03;2542934;23;20005;-82
2023/04/18 02:02:42;;;;;;;24.38;13.65;;;;;;;4.68;100.00;93100.50;2530236;23;20014;-84
2023/04/18 02:03:43;;;;;;;17.17;14.18;;;;;;;4.64;100.00;93098.97;2530061;23;20690;-84
2023/04/18 02:04:44;;;;;;;17.17;14.30;;;;;;;4.73;100.00;93104.66;2543243;23;20008;-83
2023/04/18 02:05:46;;;;;;;17.08;13.65;;;;;;;4.59;100.00;93094.06;2530892;23;20044;-83
2023/04/18 02:06:47;;;;;;;17.27;14.07;;;;;;;4.64;100.00;93102.38;2543473;23;20005;-83
2023/04/18 02:07:49;;;;;;;17.98;14.43;;;;;;;4.76;100.00;93103.91;2553899;23;20437;-82
2023/04/18 02:08:50;;;;;;;18.65;14.93;;;;;;;4.67;100.00;93100.88;2542307;23;20048;-84
2023/04/18 02:09:50;;;;;;;16.42;14.15;;;;;;;4.72;100.00;93103.91;2543304;23;20013;-83
2023/04/18 02:10:52;;;;;;;19.00;14.60;;;;;;;4.66;100.00;93099.38;2542824;23;20008;-85
2023/04/18 02:11:58;;;;;;;18.58;14.75;;;;;;;4.62;100.00;93098.63;2530957;23;20010;-83
2023/04/18 02:13:01;;;;;;;20.77;14.30;;;;;;;4.57;100.00;93099.75;2532745;23;20006;-82
2023/04/18 02:14:05;;;;;;;16.63;14.60;;;;;;;4.65;100.00;93095.94;2542669;23;20500;-85
2023/04/18 02:15:07;;;;;;;20.05;14.68;;;;;;;4.67;100.00;93101.63;2542759;23;20441;-83
2023/04/18 02:16:13;;;;;;;18.13;14.38;;;;;;;4.67;100.00;93093.69;2531702;23;20429;-83
2023/04/18 02:17:15;;;;;;;19.30;13.88;;;;;;;4.57;100.00;93107.69;2532422;23;20005;-81
2023/04/18 02:18:17;;;;;;;17.08;14.93;;;;;;;4.56;100.00;93095.56;2530567;23;20009;-84
2023/04/18 02:20:44;;;;;;;;;;;;;;;4.54;100.00;93093.31;2132324;27;20187;-78
2023/04/18 02:22:48;;;;;;;17.38;12.57;;;;;;;4.58;100.00;93089.91;2110787;28;19997;-78
2023/04/18 02:24:57;;;;;;;16.25;12.52;;;;;;;4.47;100.00;93093.28;2082171;28;20511;-77
2023/04/18 02:28:42;;;;;;;18.00;13.45;;;;;;;4.40;100.00;93095.19;2067469;28;20037;-77
2023/04/18 02:30:34;;;;;;;18.67;13.80;;;;;;;4.38;100.00;93094.81;2072754;28;20096;-77
2023/04/18 02:32:03;;;;;;;17.27;12.65;;;;;;;4.33;100.00;93093.28;2051436;28;20046;-79
2023/04/18 02:33:44;;;;;;;19.50;13.02;;;;;;;4.47;100.00;93088.00;2055153;28;20046;-79
2023/04/18 02:34:57;;;;;;;21.25;13.82;;;;;;;4.44;100.00;93080.09;2080783;28;20032;-79
2023/04/18 02:36:31;;;;;;;21.75;14.18;;;;;;;4.48;100.00;93086.13;2072907;28;20096;-76
2023/04/18 02:37:46;;;;;;;34.05;15.77;;;;;;;4.40;100.00;93085.38;2062645;28;20030;-79
2023/04/18 02:39:03;;;;;;;20.58;15.13;;;;;;;4.38;100.00;93097.44;2068708;28;20041;-76
2023/04/18 02:40:42;;;;;;;17.73;14.23;;;;;;;4.27;100.00;93098.19;2082431;28;20029;-77
2023/04/18 02:45:06;;;;;;;18.17;13.40;;;;;;;4.44;100.00;93083.47;2053051;28;20042;-77
2023/04/18 02:49:31;;;;;;;17.92;14.23;;;;;;;4.64;100.00;93080.44;2025044;29;20041;-78
2023/04/18 02:50:42;;;;;;;19.55;14.57;;;;;;;4.51;100.00;93080.81;2034671;29;20040;-77
2023/04/18 02:51:52;;;;;;;21.00;14.82;;;;;;;4.48;100.00;93080.84;2038416;29;20038;-79
2023/04/18 02:53:06;;;;;;;22.17;17.05;;;;;;;4.52;100.00;93082.34;2034303;29;20040;-78
2023/04/18 02:54:21;;;;;;;;;;;;;;;4.57;100.00;93080.47;2071883;28;20073;-77
2023/04/18 02:55:30;;;;;;;19.73;14.02;;;;;;;4.47;100.00;93081.97;2103246;28;19915;-77
2023/04/18 02:56:41;;;;;;;21.55;15.90;;;;;;;4.40;100.00;93085.38;2103250;28;20031;-79
2023/04/18 02:57:47;;;;;;;21.10;16.67;;;;;;;4.45;100.00;93085.00;2095654;28;20105;-77
2023/04/18 02:58:50;;;;;;;21.27;16.27;;;;;;;4.47;100.00;93077.41;2097873;28;20617;-77
2023/04/18 03:00:09;;;;;;;21.75;16.55;;;;;;;4.38;100.00;93079.69;2096610;28;20524;-79
2023/04/18 03:01:38;;;;;;;22.98;16.23;;;;;;;4.31;100.00;93087.63;2101600;27;20666;-77
2023/04/18 03:19:47;;;;;;;22.98;15.13;;;;;;;4.61;100.00;93078.56;2120853;22;20064;-83
2023/04/18 03:20:48;;;;;;;20.02;16.00;;;;;;;4.57;100.00;93080.47;2070238;28;20454;-84
2023/04/18 03:21:49;;;;;;;21.13;16.02;;;;;;;4.57;100.00;93081.22;2064582;28;20030;-84
2023/04/18 03:22:50;;;;;;;21.63;16.40;;;;;;;4.60;100.00;93079.69;2059239;28;20022;-83
2023/04/18 03:23:51;;;;;;;21.70;16.52;;;;;;;4.66;100.00;93083.50;2057335;28;20030;-83
2023/04/18 03:24:52;;;;;;;23.15;17.55;;;;;;;4.71;100.00;93083.88;2065516;28;20372;-83
2023/04/18 03:25:53;;;;;;;24.17;17.92;;;;;;;4.58;100.00;93082.72;2077194;28;20478;-83
2023/04/18 03:26:55;;;;;;;23.52;17.42;;;;;;;4.53;100.00;93077.81;2070346;28;20482;-84
2023/04/18 03:27:56;;;;;;;25.60;18.52;;;;;;;4.59;100.00;93080.84;2069395;28;20033;-85
2023/04/18 03:28:58;;;;;;;23.05;17.50;;;;;;;4.53;100.00;93078.56;2069164;28;20030;-83
2023/04/18 03:29:59;;;;;;;25.35;18.02;;;;;;;4.55;100.00;93078.19;2061415;28;20023;-83
2023/04/18 03:30:59;;;;;;;22.90;17.30;;;;;;;4.61;100.00;93081.97;2058302;28;20030;-83
2023/04/18 03:32:00;;;;;;;22.73;16.20;;;;;;;4.44;100.00;93077.44;2049190;28;20031;-83
2023/04/18 03:33:04;;;;;;;26.67;17.30;;;;;;;4.51;100.00;93075.53;2060006;28;20037;-82
2023/04/18 03:34:05;;;;;;;25.45;18.35;;;;;;;4.54;100.00;93068.72;2055778;28;20026;-84
2023/04/18 03:35:06;;;;;;;25.17;18.08;;;;;;;4.53;100.00;93073.28;2061351;28;20571;-85
2023/04/18 03:36:07;;;;;;;25.33;17.45;;;;;;;4.44;100.00;93075.53;2055737;28;20063;-82
2023/04/18 03:37:08;;;;;;;23.83;18.23;;;;;;;4.49;100.00;93075.16;2046553;28;20027;-83
2023/04/18 03:38:09;;;;;;;30.98;18.20;;;;;;;4.44;100.00;93069.50;2046734;28;20058;-84
2023/04/18 03:39:10;;;;;;;26.42;18.42;;;;;;;4.47;100.00;93069.47;2056059;28;20397;-83
2023/04/18 03:40:11;;;;;;;27.67;18.17;;;;;;;4.48;100.00;93071.00;2053676;28;20027;-83
2023/04/18 03:41:12;;;;;;;23.88;17.17;;;;;;;4.48;100.00;93071.00;2047183;28;20023;-83
2023/04/18 03:42:15;;;;;;;24.55;17.85;;;;;;;4.52;100.00;93071.00;2061288;28;20037;-83
2023/04/18 03:43:20;;;;;;;28.67;18.80;;;;;;;4.51;100.00;93070.22;2064299;28;20034;-82
2023/04/18 03:44:23;;;;;;;70.75;17.98;;;;;;;4.29;100.00;93074.75;2059837;28;20381;-83
2023/04/18 03:45:24;;;;;;;25.10;17.60;;;;;;;4.31;100.00;93071.00;2044588;28;20098;-82
2023/04/18 03:46:25;;;;;;;24.60;18.33;;;;;;;4.33;100.00;93074.75;2051663;28;20480;-82
2023/04/18 03:47:28;;;;;;;30.17;20.27;;;;;;;4.36;100.00;93073.25;2043384;28;20411;-84
2023/04/18 03:48:29;;;;;;;29.23;18.73;;;;;;;4.28;100.00;93081.19;2048035;28;20023;-82
2023/04/18 03:49:30;;;;;;;30.25;17.95;;;;;;;4.52;100.00;93073.63;2048143;28;20451;-82
2023/04/18 03:50:33;;;;;;;55.20;17.45;;;;;;;4.50;100.00;93071.38;2047690;28;20035;-82
2023/04/18 03:51:42;;;;;;;26.67;18.08;;;;;;;4.37;100.00;93066.84;2056440;28;20077;-85
2023/04/18 03:52:43;;;;;;;27.27;18.48;;;;;;;4.46;100.00;93072.50;2057005;28;20464;-84
2023/04/18 03:53:44;;;;;;;30.58;18.15;;;;;;;4.45;100.00;93069.09;2051433;28;20031;-85
2023/04/18 03:54:45;;;;;;;36.70;19.15;;;;;;;4.50;100.00;93070.63;2059694;28;20058;-84
2023/04/18 03:55:46;;;;;;;42.13;19.45;;;;;;;4.44;100.00;93066.84;2051677;28;20095;-83
2023/04/18 03:56:47;;;;;;;27.73;18.80;;;;;;;4.44;100.00;93066.84;2047640;28;20552;-83
2023/04/18 03:57:48;;;;;;;32.22;17.63;;;;;;;4.47;100.00;93068.72;2051674;28;20476;-84
2023/04/18 03:58:49;;;;;;;39.38;18.65;;;;;;;4.50;100.00;93073.28;2059656;28;20113;-83
2023/04/18 03:59:50;;;;;;;63.13;18.02;;;;;;;4.44;100.00;93064.97;2059584;28;20350;-85
2023/04/18 04:00:52;;;;;;;28.27;18.38;;;;;;;4.44;100.00;93072.91;2048174;28;20321;-83
2023/04/18 04:01:52;;;;;;;84.15;18.65;;;;;;;4.29;100.00;93066.81;2044070;28;20053;-83
2023/04/18 04:02:53;;;;;;;53.60;18.38;;;;;;;4.48;100.00;93057.78;2052397;28;20046;-85
2023/04/18 04:03:54;;;;;;;40.08;17.50;;;;;;;4.43;100.00;93062.66;2055609;28;20038;-85
2023/04/18 04:04:55;;;;;;;45.25;18.77;;;;;;;4.39;100.00;93065.34;2044761;28;20472;-82
2023/04/18 04:05:56;;;;;;;108.75;20.13;;;;;;;4.40;100.00;93066.84;2063550;28;20029;-86
2023/04/18 04:06:58;;;;;;;67.20;19.23;;;;;;;4.46;100.00;93062.69;2047224;28;20546;-86
2023/04/18 04:08:01;;;;;;;61.17;18.58;;;;;;;4.48;100.00;93063.06;2043947;28;20490;-85
2023/04/18 04:09:03;;;;;;;33.53;17.52;;;;;;;4.50;100.00;93060.03;2047889;28;20107;-83
2023/04/18 04:10:06;;;;;;;35.33;18.77;;;;;;;4.42;100.00;93058.53;2053704;28;20031;-85
2023/04/18 04:11:07;;;;;;;38.08;19.33;;;;;;;4.32;100.00;93067.22;2059422;28;20038;-85
2023/04/18 04:12:08;;;;;;;32.50;18.00;;;;;;;4.37;100.00;93067.59;2053756;28;20033;-84
2023/04/18 04:13:09;;;;;;;48.13;18.70;;;;;;;4.34;100.00;93064.94;2046868;28;20110;-86
2023/04/18 04:14:12;;;;;;;35.38;18.90;;;;;;;4.29;100.00;93063.41;2046760;28;20031;-82
2023/04/18 04:15:13;;;;;;;30.08;19.27;;;;;;;4.27;100.00;93063.81;2047643;28;20566;-83
2023/04/18 04:16:14;;;;;;;31.25;19.42;;;;;;;4.29;100.00;93061.53;2047713;28;20086;-82
2023/04/18 04:17:16;;;;;;;40.85;18.42;;;;;;;4.35;100.00;93061.94;2046586;28;20031;-82
2023/04/18 04:18:17;;;;;;;28.13;19.50;;;;;;;4.36;100.00;93060.03;2055501;28;20027;-86
2023/04/18 04:19:18;;;;;;;50.70;19.65;;;;;;;4.36;100.00;93065.34;2050903;28;20047;-84
2023/04/18 04:20:24;;;;;;;48.75;18.65;;;;;;;4.33;100.00;93068.72;2055344;28;20035;-86
2023/04/18 04:21:26;;;;;;;39.63;19.27;;;;;;;4.31;100.00;93066.47;2056208;28;20069;-85
2023/04/18 04:22:26;;;;;;;38.05;19.52;;;;;;;4.49;100.00;93063.81;2048063;28;20718;-83
2023/04/18 04:23:27;;;;;;;71.05;19.50;;;;;;;4.65;100.00;93066.06;2046741;28;20042;-82
2023/04/18 04:24:29;;;;;;;30.40;19.00;;;;;;;4.51;100.00;93067.59;2042714;28;20427;-87
2023/04/18 04:25:32;;;;;;;101.03;20.35;;;;;;;4.45;100.00;93069.09;2043261;28;20480;-85
2023/04/18 04:26:35;;;;;;;26.70;18.90;;;;;;;4.42;100.00;93072.50;2047984;28;20023;-82
2023/04/18 04:27:37;;;;;;;24.77;18.02;;;;;;;4.42;100.00;93074.41;2055959;28;20027;-85
2023/04/18 04:28:38;;;;;;;76.43;19.25;;;;;;;4.40;100.00;93069.50;2043842;28;20408;-85
2023/04/18 04:29:40;;;;;;;103.32;19.30;;;;;;;4.35;100.00;93069.13;2047121;28;20118;-84
2023/04/18 04:30:41;;;;;;;58.83;19.60;;;;;;;4.34;100.00;93073.63;2043902;28;20042;-85
2023/04/18 04:31:43;;;;;;;58.95;18.17;;;;;;;4.42;100.00;93069.84;2044971;28;21056;-84
2023/04/18 04:32:46;;;;;;;53.83;17.63;;;;;;;4.46;100.00;93073.25;2044510;28;20027;-83
2023/04/18 04:33:47;;;;;;;56.22;18.98;;;;;;;4.45;100.00;93074.41;2041309;28;20023;-85
2023/04/18 04:34:49;;;;;;;64.07;18.38;;;;;;;4.51;100.00;93072.88;2060059;28;20092;-85
2023/04/18 04:35:51;;;;;;;31.20;17.45;;;;;;;4.44;100.00;93082.72;2055346;28;20551;-86
2023/04/18 04:36:53;;;;;;;46.28;17.90;;;;;;;4.41;100.00;93075.53;2044456;28;20034;-84
2023/04/18 04:37:55;;;;;;;50.03;18.70;;;;;;;4.40;100.00;93074.03;2053421;28;20034;-85
2023/04/18 04:38:58;;;;;;;26.80;17.17;;;;;;;4.41;100.00;93065.69;2051634;28;20068;-84
2023/04/18 04:40:00;;;;;;;69.85;18.60;;;;;;;4.39;100.00;93078.56;2056916;28;20503;-83
2023/04/18 04:41:08;;;;;;;31.15;17.17;;;;;;;4.48;100.00;93076.31;2049713;28;20517;-83
2023/04/18 04:42:10;;;;;;;52.22;18.73;;;;;;;4.44;100.00;93080.84;2045909;28;20468;-86
2023/04/18 04:43:14;;;;;;;46.90;17.20;;;;;;;4.47;100.00;93076.66;2051202;28;20142;-85
2023/04/18 04:44:16;;;;;;;46.75;16.75;;;;;;;4.42;100.00;93075.16;2057709;28;20169;-82
2023/04/18 04:45:18;;;;;;;42.05;18.13;;;;;;;4.43;100.00;93076.66;2058324;28;20053;-85
2023/04/18 04:46:19;;;;;;;98.45;18.77;;;;;;;4.34;100.00;93075.53;2045105;28;20031;-85
2023/04/18 04:47:20;;;;;;;58.10;18.83;;;;;;;4.30;100.00;93080.81;2045055;28;20050;-86
2023/04/18 04:48:23;;;;;;;30.60;18.10;;;;;;;4.33;100.00;93074.00;2044671;28;20155;-84
2023/04/18 04:49:24;;;;;;;43.38;18.60;;;;;;;4.27;100.00;93078.94;2045407;28;20448;-82
2023/04/18 04:50:25;;;;;;;84.10;18.70;;;;;;;4.25;100.00;93081.94;2045305;29;20031;-84
2023/04/18 04:51:26;;;;;;;242.52;20.23;;;;;;;4.37;100.00;93075.53;2049192;28;20027;-85
2023/04/18 04:52:27;;;;;;;59.33;18.33;;;;;;;4.29;100.00;93082.69;2056944;28;20030;-84
2023/04/18 04:53:31;;;;;;;53.38;19.15;;;;;;;4.28;100.00;93081.19;2047976;28;20031;-83
2023/04/18 04:54:32;;;;;;;40.47;18.27;;;;;;;4.38;100.00;93074.38;2053185;28;20224;-83
2023/04/18 04:55:33;;;;;;;161.40;17.92;;;;;;;4.50;100.00;93075.91;2051656;28;20034;-83
2023/04/18 04:56:35;;;;;;;55.15;17.02;;;;;;;4.55;100.00;93070.25;2038250;28;20032;-83
2023/04/18 04:57:36;;;;;;;109.40;17.88;;;;;;;4.48;100.00;93075.56;2050778;28;20575;-86
2023/04/18 04:58:37;;;;;;;93.72;18.42;;;;;;;4.48;100.00;93072.91;2050941;28;20022;-84
2023/04/18 04:59:38;;;;;;;166.75;19.73;;;;;;;4.40;100.00;93077.44;2043129;28;20460;-84
2023/04/18 05:00:40;;;;;;;151.10;21.85;;;;;;;4.31;100.00;93071.00;2052595;28;20022;-82
2023/04/18 05:01:41;;;;;;;66.28;19.42;;;;;;;4.28;100.00;93075.91;2048802;28;20057;-84
2023/04/18 05:02:42;;;;;;;47.88;18.52;;;;;;;4.31;100.00;93071.00;2047941;28;20069;-83
2023/04/18 05:03:43;;;;;;;231.35;20.98;;;;;;;4.37;100.00;93067.59;2048796;28;20451;-84
2023/04/18 05:04:44;;;;;;;160.05;19.95;;;;;;;4.31;100.00;93061.16;2049266;28;20023;-84
2023/04/18 05:05:46;;;;;;;69.38;18.38;;;;;;;4.32;100.00;93070.63;2048177;28;20509;-82
2023/04/18 05:06:47;;;;;;;55.83;18.75;;;;;;;4.24;100.00;93071.72;2051229;28;20537;-83
2023/04/18 05:07:48;;;;;;;24.85;17.83;;;;;;;4.33;100.00;93069.47;2045810;28;20067;-89
2023/04/18 05:08:49;;;;;;;27.67;16.80;;;;;;;4.45;100.00;93071.75;2054099;28;20101;-90
2023/04/18 05:09:52;;;;;;;26.80;17.95;;;;;;;4.55;100.00;93071.00;2051130;28;20018;-86
2023/04/18 05:10:54;;;;;;;53.85;17.73;;;;;;;4.63;100.00;93084.25;2049261;28;20066;-84
2023/04/18 05:11:55;;;;;;;30.13;17.45;;;;;;;4.72;100.00;93080.06;2053522;28;20500;-87
2023/04/18 05:12:56;;;;;;;27.75;17.40;;;;;;;4.73;100.00;93083.47;2049285;28;20094;-87
2023/04/18 05:13:59;;;;;;;25.05;17.15;;;;;;;4.75;100.00;93083.88;2045051;28;20027;-85
2023/04/18 05:15:02;;;;;;;24.25;16.48;;;;;;;4.71;100.00;93088.41;2049969;28;20037;-86
2023/04/18 05:16:03;;;;;;;26.50;16.88;;;;;;;4.68;100.00;93089.16;2045951;28;20382;-85
2023/04/18 05:17:06;;;;;;;55.47;18.10;;;;;;;4.67;100.00;93085.00;2048992;28;20030;-84
2023/04/18 05:18:07;;;;;;;30.08;17.35;;;;;;;4.63;100.00;93090.28;2054539;28;20528;-82
2023/04/18 05:19:08;;;;;;;36.47;17.30;;;;;;;4.65;100.00;93093.31;2048701;28;20469;-85
2023/04/18 05:20:10;;;;;;;60.28;17.90;;;;;;;4.66;100.00;93094.84;2042956;28;20058;-83
2023/04/18 05:21:12;;;;;;;35.95;16.58;;;;;;;4.65;100.00;93092.53;2044725;28;20035;-86
2023/04/18 05:22:14;;;;;;;52.08;17.15;;;;;;;4.60;100.00;93087.63;2037048;29;20488;-85
2023/04/18 05:23:15;;;;;;;22.67;17.05;;;;;;;4.53;100.00;93105.03;2044080;28;20037;-84
2023/04/18 05:24:17;;;;;;;54.97;17.33;;;;;;;4.54;100.00;93098.59;2052011;28;20031;-83
2023/04/18 05:25:18;;;;;;;33.20;18.10;;;;;;;4.51;100.00;93096.69;2056591;28;20392;-83
2023/04/18 05:26:20;;;;;;;34.65;17.23;;;;;;;4.55;100.00;93094.81;2056271;28;20512;-84
2023/04/18 05:27:21;;;;;;;46.15;18.90;;;;;;;4.45;100.00;93095.56;2041070;28;20037;-86
2023/04/18 05:28:25;;;;;;;33.20;18.33;;;;;;;4.61;100.00;93099.72;2040895;28;20031;-86
2023/04/18 05:29:26;;;;;;;110.72;18.45;;;;;;;4.69;100.00;93096.72;2049099;28;20023;-83
2023/04/18 05:30:27;;;;;;;60.10;17.45;;;;;;;4.69;100.00;93096.72;2052168;28;20021;-86